Time;durP1;ratioP1;P1;durP2;ratioP2;P2;SDS_P1;SDS_P2;PMS_P1;PMS_P2;Temp;Humidity;BMP_temperature;BMP_pressure;BME280_temperature;BME280_humidity;BME280_pressure;Samples;Min_cycle;Max_cycle;Signal;HPM_P1;HPM_P2
2022/03/25 00:00:10;;;;;;;141.13;66.80;;;4.50;99.90;;;;;;5096001;28;20043;-67
2022/03/25 00:02:37;;;;;;;141.63;63.53;;;4.50;99.90;;;;;;5092844;28;20058;-66
2022/03/25 00:05:04;;;;;;;137.98;64.47;;;4.40;99.90;;;;;;5097643;28;20092;-66
2022/03/25 00:07:30;;;;;;;134.05;66.20;;;4.40;99.90;;;;;;5096659;28;20318;-67
2022/03/25 00:09:56;;;;;;;128.80;63.15;;;4.40;99.90;;;;;;5097280;28;20031;-67
2022/03/25 00:12:21;;;;;;;130.48;65.57;;;4.40;99.90;;;;;;5097059;28;20027;-66
2022/03/25 00:14:49;;;;;;;130.40;62.35;;;4.40;99.90;;;;;;5090750;28;20035;-66
2022/03/25 00:17:15;;;;;;;130.32;63.28;;;4.30;99.90;;;;;;5098238;28;20357;-66
2022/03/25 00:19:40;;;;;;;125.93;61.33;;;4.20;99.90;;;;;;5098045;28;20032;-66
2022/03/25 00:22:06;;;;;;;133.73;63.13;;;4.10;99.90;;;;;;5098536;28;20115;-66
2022/03/25 00:24:32;;;;;;;123.75;61.90;;;4.10;99.90;;;;;;5090593;28;20128;-67
2022/03/25 00:26:57;;;;;;;128.38;63.70;;;4.00;99.90;;;;;;5083839;28;20029;-67
2022/03/25 00:29:23;;;;;;;127.30;62.00;;;4.00;99.90;;;;;;5094449;28;20378;-66
2022/03/25 00:31:49;;;;;;;130.52;62.88;;;4.00;99.90;;;;;;5090299;28;20049;-67
2022/03/25 00:34:14;;;;;;;134.63;64.13;;;3.90;99.90;;;;;;5083447;28;20048;-67
2022/03/25 00:36:40;;;;;;;132.50;61.15;;;3.80;99.90;;;;;;5092273;28;20033;-66
2022/03/25 00:39:08;;;;;;;131.10;62.22;;;3.80;99.90;;;;;;5099390;28;20057;-67
2022/03/25 00:41:36;;;;;;;123.07;59.00;;;3.80;99.90;;;;;;5091819;28;20101;-66
2022/03/25 00:44:05;;;;;;;110.10;53.90;;;3.70;99.90;;;;;;5090252;28;20383;-67
2022/03/25 00:46:31;;;;;;;100.50;50.92;;;3.70;99.90;;;;;;5087142;28;20039;-66
2022/03/25 00:48:56;;;;;;;105.53;52.33;;;3.60;99.90;;;;;;5099127;28;20135;-67
2022/03/25 00:51:22;;;;;;;112.55;55.17;;;3.60;99.90;;;;;;5091896;28;20431;-66
2022/03/25 00:53:48;;;;;;;108.43;53.80;;;3.60;99.90;;;;;;5084745;28;20031;-66
2022/03/25 00:56:14;;;;;;;128.43;59.90;;;3.60;99.90;;;;;;5090503;28;20078;-66
2022/03/25 00:58:39;;;;;;;128.65;59.17;;;3.60;99.90;;;;;;5099134;28;20508;-66
2022/03/25 01:01:05;;;;;;;129.15;61.00;;;3.60;99.90;;;;;;5089104;28;20020;-66
2022/03/25 01:03:31;;;;;;;136.02;62.70;;;3.50;99.90;;;;;;5096925;28;20036;-66
2022/03/25 01:05:57;;;;;;;118.45;55.33;;;3.50;99.90;;;;;;5094548;28;20034;-66
2022/03/25 01:08:23;;;;;;;118.10;55.85;;;3.40;99.90;;;;;;5087514;28;20393;-67
2022/03/25 01:10:49;;;;;;;105.40;50.63;;;3.40;99.90;;;;;;5095530;28;20171;-66
2022/03/25 01:13:15;;;;;;;104.60;51.53;;;3.40;99.90;;;;;;5097957;28;20106;-67
2022/03/25 01:15:41;;;;;;;82.47;43.53;;;3.30;99.90;;;;;;5090514;28;20036;-66
2022/03/25 01:18:06;;;;;;;80.30;42.03;;;3.20;99.90;;;;;;5094512;28;20074;-66
2022/03/25 01:20:32;;;;;;;71.50;39.05;;;3.20;99.90;;;;;;5092672;28;20031;-66
2022/03/25 01:22:58;;;;;;;70.88;37.80;;;3.20;99.90;;;;;;5094504;28;20032;-66
2022/03/25 01:25:24;;;;;;;64.25;35.65;;;3.10;99.90;;;;;;5089389;28;20040;-67
2022/03/25 01:27:50;;;;;;;59.80;34.90;;;3.00;99.90;;;;;;5095607;28;20027;-67
2022/03/25 01:30:16;;;;;;;57.63;33.42;;;2.90;99.90;;;;;;5094342;28;20045;-66
2022/03/25 01:32:41;;;;;;;59.22;33.35;;;2.90;99.90;;;;;;5095497;28;20036;-66
2022/03/25 01:35:09;;;;;;;66.72;38.17;;;2.90;99.90;;;;;;5096591;28;20095;-67
2022/03/25 01:37:35;;;;;;;75.20;40.10;;;2.80;99.90;;;;;;5090465;28;20040;-66
2022/03/25 01:40:01;;;;;;;86.13;45.63;;;2.80;99.90;;;;;;5095427;28;20024;-66
2022/03/25 01:42:37;;;;;;;86.45;45.17;;;2.80;99.90;;;;;;5097403;28;20078;-66
2022/03/25 01:45:04;;;;;;;102.28;51.40;;;2.80;99.90;;;;;;5083749;28;20097;-66
2022/03/25 01:47:33;;;;;;;97.65;48.75;;;2.80;99.90;;;;;;5081912;28;20463;-66
2022/03/25 01:50:00;;;;;;;88.78;46.80;;;2.80;99.90;;;;;;5090799;28;20035;-66
2022/03/25 01:52:27;;;;;;;91.32;45.20;;;2.80;99.90;;;;;;5091406;28;20039;-66
2022/03/25 01:54:53;;;;;;;75.15;41.15;;;2.70;99.90;;;;;;5092307;28;20051;-66
2022/03/25 01:57:24;;;;;;;77.78;40.05;;;2.70;99.90;;;;;;5093940;28;20036;-66
2022/03/25 01:59:49;;;;;;;73.78;38.30;;;2.60;99.90;;;;;;5090441;28;20027;-67
2022/03/25 02:02:15;;;;;;;60.17;34.13;;;2.60;99.90;;;;;;5084463;28;20363;-67
2022/03/25 02:04:41;;;;;;;62.45;34.00;;;2.60;99.90;;;;;;5099603;28;20024;-66
2022/03/25 02:07:09;;;;;;;54.30;31.27;;;2.50;99.90;;;;;;5087385;28;20043;-67
2022/03/25 02:09:35;;;;;;;52.53;30.80;;;2.50;99.90;;;;;;5099519;28;20024;-67
2022/03/25 02:12:00;;;;;;;55.08;31.23;;;2.40;99.90;;;;;;5096000;28;20046;-66
2022/03/25 02:14:26;;;;;;;51.85;30.00;;;2.30;99.90;;;;;;5099217;28;20047;-67
2022/03/25 02:16:52;;;;;;;50.42;29.63;;;2.30;99.90;;;;;;5099652;28;20036;-66
2022/03/25 02:19:18;;;;;;;47.97;28.70;;;2.20;99.90;;;;;;5096216;28;20039;-67
2022/03/25 02:21:48;;;;;;;47.75;29.63;;;2.20;99.90;;;;;;5098301;28;20040;-66
2022/03/25 02:24:15;;;;;;;50.65;29.42;;;2.10;99.90;;;;;;5088054;28;20092;-66
2022/03/25 02:26:42;;;;;;;49.55;28.67;;;2.10;99.90;;;;;;5101900;28;20027;-67
2022/03/25 02:29:10;;;;;;;49.30;27.48;;;2.10;99.90;;;;;;5096227;28;20044;-66
2022/03/25 02:31:36;;;;;;;44.97;27.40;;;2.00;99.90;;;;;;5087758;28;21439;-66
2022/03/25 02:34:08;;;;;;;47.65;29.02;;;2.00;99.90;;;;;;5100681;28;20032;-66
2022/03/25 02:36:41;;;;;;;42.58;26.55;;;1.90;99.90;;;;;;5096731;28;20043;-66
2022/03/25 02:39:08;;;;;;;45.33;28.88;;;1.80;99.90;;;;;;5095527;28;20040;-66
2022/03/25 02:41:34;;;;;;;48.10;28.50;;;1.80;99.90;;;;;;5086727;28;20567;-66
2022/03/25 02:44:01;;;;;;;45.72;29.23;;;1.60;99.90;;;;;;5098555;28;20026;-66
2022/03/25 02:46:26;;;;;;;49.03;30.50;;;1.60;99.90;;;;;;5098222;28;21902;-66
2022/03/25 02:48:53;;;;;;;47.58;29.65;;;1.50;99.90;;;;;;5092247;28;20166;-66
2022/03/25 02:51:19;;;;;;;44.25;27.25;;;1.50;99.90;;;;;;5094786;28;20039;-66
2022/03/25 02:53:44;;;;;;;46.28;28.35;;;1.50;99.90;;;;;;5094694;28;20043;-66
2022/03/25 02:56:10;;;;;;;46.33;27.92;;;1.50;99.90;;;;;;5099106;28;20404;-66
2022/03/25 02:58:37;;;;;;;50.20;30.08;;;1.40;99.90;;;;;;5099527;28;20055;-66
2022/03/25 03:01:03;;;;;;;55.47;32.05;;;1.40;99.90;;;;;;5092722;28;20035;-66
2022/03/25 03:03:29;;;;;;;47.42;29.25;;;1.30;99.90;;;;;;5100350;28;20474;-66
2022/03/25 03:05:55;;;;;;;49.47;30.02;;;1.30;99.90;;;;;;5097215;28;20043;-67
2022/03/25 03:08:24;;;;;;;52.00;31.83;;;1.30;99.90;;;;;;5099587;28;20051;-66
2022/03/25 03:10:49;;;;;;;46.25;28.52;;;1.20;99.90;;;;;;5091956;28;20106;-66
2022/03/25 03:13:15;;;;;;;49.05;28.90;;;1.20;99.90;;;;;;5096102;28;20082;-66
2022/03/25 03:15:41;;;;;;;49.45;30.50;;;1.20;99.90;;;;;;5098150;28;20054;-66
2022/03/25 03:18:07;;;;;;;53.35;30.70;;;1.20;99.90;;;;;;5099689;28;20032;-65
2022/03/25 03:20:33;;;;;;;50.33;29.80;;;1.20;99.90;;;;;;5093884;28;20024;-66
2022/03/25 03:22:59;;;;;;;49.67;31.55;;;1.20;99.90;;;;;;5095991;28;20027;-66
2022/03/25 03:25:26;;;;;;;48.55;29.52;;;1.20;99.90;;;;;;5097401;28;20092;-66
2022/03/25 03:27:54;;;;;;;66.25;34.35;;;1.20;99.90;;;;;;5099912;28;20095;-66
2022/03/25 03:30:20;;;;;;;63.35;35.72;;;1.20;99.90;;;;;;5093893;28;20055;-66
2022/03/25 03:32:46;;;;;;;55.95;33.60;;;1.20;99.90;;;;;;5087947;28;20024;-66
2022/03/25 03:35:12;;;;;;;65.07;34.97;;;1.20;99.90;;;;;;5095602;28;20139;-66
2022/03/25 03:37:42;;;;;;;75.80;35.83;;;1.20;99.90;;;;;;5096659;28;20041;-66
2022/03/25 03:40:14;;;;;;;81.40;34.85;;;1.20;99.90;;;;;;5097928;28;20023;-66
2022/03/25 03:42:40;;;;;;;105.18;36.92;;;1.20;99.90;;;;;;5085561;28;20130;-65
2022/03/25 03:45:08;;;;;;;104.00;38.55;;;1.20;99.90;;;;;;5083167;28;20476;-66
2022/03/25 03:47:35;;;;;;;92.03;36.55;;;1.30;99.90;;;;;;5090537;28;20401;-66
2022/03/25 03:50:03;;;;;;;136.05;39.75;;;1.20;99.90;;;;;;5100467;28;20054;-66
2022/03/25 03:52:30;;;;;;;143.65;39.60;;;1.20;99.90;;;;;;5093967;28;20020;-66
2022/03/25 03:54:56;;;;;;;148.13;40.03;;;1.20;99.90;;;;;;5095897;28;20024;-66
2022/03/25 03:57:22;;;;;;;159.52;39.85;;;1.20;99.90;;;;;;5097100;28;20570;-65
2022/03/25 03:59:49;;;;;;;91.35;34.65;;;1.20;99.90;;;;;;5091083;28;20062;-66
2022/03/25 04:02:15;;;;;;;75.45;33.65;;;1.20;99.90;;;;;;5096605;28;20485;-66
2022/03/25 04:04:41;;;;;;;62.03;34.00;;;1.20;99.90;;;;;;5093525;28;20040;-66
2022/03/25 04:07:07;;;;;;;133.20;37.17;;;1.20;99.90;;;;;;5097628;28;20065;-66
2022/03/25 04:09:35;;;;;;;60.28;32.55;;;1.20;99.90;;;;;;5094552;28;20036;-66
2022/03/25 04:12:01;;;;;;;76.13;37.70;;;1.20;99.90;;;;;;5089216;28;20020;-66
2022/03/25 04:14:27;;;;;;;335.63;49.30;;;1.20;99.90;;;;;;5094163;28;20043;-66
2022/03/25 04:16:52;;;;;;;346.30;49.75;;;1.20;99.90;;;;;;5096252;28;20557;-66
2022/03/25 04:19:19;;;;;;;280.90;46.72;;;1.20;99.90;;;;;;5093615;28;20122;-66
2022/03/25 04:21:44;;;;;;;316.23;45.85;;;1.20;99.90;;;;;;5094938;28;20048;-66
2022/03/25 04:24:10;;;;;;;276.98;47.38;;;1.20;99.90;;;;;;5093009;28;20032;-65
2022/03/25 04:26:36;;;;;;;267.33;48.53;;;1.20;99.90;;;;;;5085169;28;20020;-66
2022/03/25 04:29:02;;;;;;;308.27;54.47;;;1.10;99.90;;;;;;5094286;28;20027;-66
2022/03/25 04:31:28;;;;;;;119.07;38.92;;;1.10;99.90;;;;;;5091995;28;20072;-66
2022/03/25 04:33:53;;;;;;;109.90;38.03;;;1.10;99.90;;;;;;5095466;28;20032;-66
2022/03/25 04:36:19;;;;;;;96.45;36.53;;;1.10;99.90;;;;;;5092952;28;20039;-67
2022/03/25 04:38:45;;;;;;;100.57;38.03;;;1.10;99.90;;;;;;5097791;28;20024;-67
2022/03/25 04:41:11;;;;;;;79.75;36.85;;;1.10;99.90;;;;;;5094708;28;20119;-67
2022/03/25 04:43:37;;;;;;;92.57;39.25;;;1.10;99.90;;;;;;5100310;28;20043;-67
2022/03/25 04:46:04;;;;;;;85.20;34.55;;;1.10;99.90;;;;;;5087966;28;20024;-67
2022/03/25 04:48:31;;;;;;;73.43;36.45;;;1.10;99.90;;;;;;5093267;28;20016;-67
2022/03/25 04:50:56;;;;;;;83.45;36.63;;;1.10;99.90;;;;;;5095678;28;20077;-67
2022/03/25 04:53:22;;;;;;;74.47;37.15;;;1.10;99.90;;;;;;5097294;28;20574;-67
2022/03/25 04:55:48;;;;;;;103.00;38.22;;;1.10;99.90;;;;;;5091091;28;20027;-67
2022/03/25 04:58:14;;;;;;;80.85;36.97;;;1.10;99.90;;;;;;5091623;28;20076;-66
2022/03/25 05:00:40;;;;;;;86.13;38.00;;;1.10;99.90;;;;;;5092729;28;20036;-68
2022/03/25 05:03:06;;;;;;;83.40;38.63;;;1.10;99.90;;;;;;5100233;28;20032;-67
2022/03/25 05:05:32;;;;;;;75.15;37.60;;;1.10;99.90;;;;;;5095604;28;20035;-68
2022/03/25 05:07:58;;;;;;;70.43;37.83;;;1.10;99.90;;;;;;5096440;28;20150;-66
2022/03/25 05:10:24;;;;;;;68.30;37.47;;;1.10;99.90;;;;;;5086235;28;20171;-67
2022/03/25 05:12:49;;;;;;;59.28;33.05;;;1.10;99.90;;;;;;5092328;28;20053;-66
2022/03/25 05:15:15;;;;;;;75.07;38.33;;;1.10;99.90;;;;;;5088675;28;20024;-67
2022/03/25 05:17:50;;;;;;;72.57;37.50;;;1.10;99.90;;;;;;5098608;28;20066;-67
2022/03/25 05:20:17;;;;;;;76.80;36.20;;;1.10;99.90;;;;;;5084261;28;20077;-67
2022/03/25 05:22:43;;;;;;;73.10;36.75;;;1.10;99.90;;;;;;5085883;28;20035;-66
2022/03/25 05:25:09;;;;;;;65.13;35.38;;;1.00;99.90;;;;;;5099261;28;20485;-66
2022/03/25 05:27:57;;;;;;;66.22;35.33;;;1.00;99.90;;;;;;5102150;28;20032;-66
2022/03/25 05:30:25;;;;;;;63.88;36.72;;;1.00;99.90;;;;;;5101495;28;20052;-67
2022/03/25 05:32:51;;;;;;;76.60;38.33;;;1.00;99.90;;;;;;5085822;28;20091;-66
2022/03/25 05:35:18;;;;;;;61.40;34.67;;;1.00;99.90;;;;;;5091643;28;20059;-66
2022/03/25 05:37:44;;;;;;;59.70;33.75;;;0.90;99.90;;;;;;5099980;28;20040;-67
2022/03/25 05:40:11;;;;;;;58.67;33.53;;;0.90;99.90;;;;;;5089196;28;20032;-67
2022/03/25 05:42:37;;;;;;;62.00;33.70;;;0.90;99.90;;;;;;5095779;28;20056;-68
2022/03/25 05:45:04;;;;;;;65.35;37.13;;;0.90;99.90;;;;;;5098706;28;20028;-67
2022/03/25 05:47:30;;;;;;;62.95;34.75;;;0.90;99.90;;;;;;5097784;28;20210;-68
2022/03/25 05:49:57;;;;;;;58.55;34.30;;;1.00;99.90;;;;;;5094834;28;20481;-67
2022/03/25 05:52:27;;;;;;;56.17;32.80;;;0.90;99.90;;;;;;5091835;28;20045;-68
2022/03/25 05:54:53;;;;;;;56.70;32.95;;;1.00;99.90;;;;;;5098024;28;20040;-65
2022/03/25 05:57:18;;;;;;;52.33;30.88;;;1.00;99.90;;;;;;5092846;28;20035;-66
2022/03/25 05:59:45;;;;;;;55.72;31.23;;;1.00;99.90;;;;;;5098286;28;20020;-66
2022/03/25 06:02:11;;;;;;;54.00;30.58;;;1.10;99.90;;;;;;5095317;28;20093;-66
2022/03/25 06:04:37;;;;;;;54.30;31.15;;;1.10;99.90;;;;;;5090719;28;20304;-67
2022/03/25 06:07:03;;;;;;;53.85;28.70;;;1.20;99.90;;;;;;5097421;28;20028;-66
2022/03/25 06:09:29;;;;;;;48.20;29.05;;;1.20;99.90;;;;;;5092854;28;20509;-66
2022/03/25 06:11:58;;;;;;;55.25;31.38;;;1.30;99.90;;;;;;5088095;28;20028;-66
2022/03/25 06:14:25;;;;;;;57.25;31.83;;;1.30;99.90;;;;;;5095065;28;20099;-66
2022/03/25 06:16:51;;;;;;;54.20;31.63;;;1.40;99.90;;;;;;5090986;28;20040;-66
2022/03/25 06:19:19;;;;;;;48.50;28.98;;;1.50;99.90;;;;;;5098126;28;20028;-66
2022/03/25 06:21:45;;;;;;;54.08;30.90;;;1.50;99.90;;;;;;5101396;28;20056;-66
2022/03/25 06:24:11;;;;;;;54.75;30.85;;;1.60;99.90;;;;;;5094618;28;20446;-66
2022/03/25 06:26:37;;;;;;;54.88;30.85;;;1.70;99.90;;;;;;5096675;28;20032;-66
2022/03/25 06:29:04;;;;;;;57.35;32.08;;;2.00;99.90;;;;;;5097906;28;20032;-67
2022/03/25 06:31:30;;;;;;;61.72;35.35;;;2.50;99.90;;;;;;5090625;28;20055;-66
2022/03/25 06:33:56;;;;;;;55.75;32.90;;;2.80;99.90;;;;;;5100413;28;20487;-66
2022/03/25 06:36:22;;;;;;;57.47;33.50;;;3.00;99.90;;;;;;5090294;28;20100;-66
2022/03/25 06:38:48;;;;;;;71.47;37.83;;;3.10;99.90;;;;;;5095491;28;20032;-66
2022/03/25 06:41:14;;;;;;;69.10;36.58;;;3.30;99.90;;;;;;5084729;28;20031;-66
2022/03/25 06:43:40;;;;;;;73.60;38.60;;;3.40;99.90;;;;;;5092520;28;20056;-67
2022/03/25 06:46:06;;;;;;;78.13;40.40;;;3.70;99.90;;;;;;5096726;28;20323;-67
2022/03/25 06:48:32;;;;;;;64.97;36.03;;;3.90;99.90;;;;;;5090800;28;20057;-67
2022/03/25 06:51:04;;;;;;;68.05;36.28;;;4.10;99.90;;;;;;5093198;28;20059;-68
2022/03/25 06:53:30;;;;;;;67.18;35.15;;;4.40;99.90;;;;;;5091897;28;20031;-67
2022/03/25 06:55:56;;;;;;;64.28;35.15;;;4.50;99.90;;;;;;5090833;28;20706;-67
2022/03/25 06:58:22;;;;;;;69.50;37.58;;;4.60;99.90;;;;;;5087180;28;20032;-67
2022/03/25 07:00:48;;;;;;;62.42;36.15;;;4.60;99.90;;;;;;5087467;28;20028;-67
2022/03/25 07:03:14;;;;;;;67.85;36.42;;;4.80;99.90;;;;;;5091633;28;20504;-67
2022/03/25 07:05:41;;;;;;;70.40;38.08;;;4.90;99.90;;;;;;5093800;28;20050;-68
2022/03/25 07:08:09;;;;;;;70.10;39.00;;;5.00;99.90;;;;;;5087632;28;20020;-67
2022/03/25 07:10:35;;;;;;;70.60;38.05;;;5.20;99.90;;;;;;5097173;28;20020;-67
2022/03/25 07:13:02;;;;;;;68.90;37.45;;;5.40;99.90;;;;;;5090372;28;20016;-67
2022/03/25 07:15:28;;;;;;;69.88;38.80;;;5.50;99.90;;;;;;5087144;28;20076;-73
2022/03/25 07:17:53;;;;;;;72.45;38.50;;;5.70;99.90;;;;;;5086323;28;20078;-73
2022/03/25 07:20:22;;;;;;;66.15;37.53;;;5.80;99.90;;;;;;5077954;28;20032;-77
2022/03/25 07:22:50;;;;;;;74.55;38.33;;;5.90;99.90;;;;;;5090847;28;20020;-71
2022/03/25 07:25:17;;;;;;;73.25;39.10;;;6.10;99.90;;;;;;5099719;28;20460;-71
2022/03/25 07:27:44;;;;;;;72.07;38.20;;;6.20;99.90;;;;;;5089052;28;20035;-70
2022/03/25 07:30:11;;;;;;;68.68;38.00;;;6.40;99.90;;;;;;5074472;28;20051;-70
2022/03/25 07:32:37;;;;;;;74.55;38.85;;;6.50;99.90;;;;;;5083382;28;20032;-69
2022/03/25 07:35:03;;;;;;;67.25;37.80;;;6.80;99.90;;;;;;5088162;28;20762;-69
2022/03/25 07:37:29;;;;;;;69.72;38.45;;;7.00;99.90;;;;;;5076260;28;20044;-69
2022/03/25 07:39:54;;;;;;;69.15;38.30;;;7.60;99.90;;;;;;5092800;28;20042;-70
2022/03/25 07:42:20;;;;;;;67.93;38.70;;;8.60;99.90;;;;;;5082192;28;20394;-70
2022/03/25 07:44:47;;;;;;;69.78;37.05;;;9.50;99.90;;;;;;5110794;28;20078;-70
2022/03/25 07:47:14;;;;;;;67.05;35.75;;;10.10;99.90;;;;;;5094065;28;20055;-69
2022/03/25 07:49:40;;;;;;;69.38;36.97;;;10.60;99.90;;;;;;5084133;28;20036;-70
2022/03/25 07:52:07;;;;;;;64.60;36.40;;;11.30;99.90;;;;;;5095961;28;20028;-69
2022/03/25 07:54:34;;;;;;;60.70;35.20;;;12.00;99.90;;;;;;5088203;28;20111;-70
2022/03/25 07:56:59;;;;;;;63.83;35.70;;;12.70;99.90;;;;;;5092704;28;20062;-69
2022/03/25 07:59:26;;;;;;;62.55;34.42;;;12.50;99.90;;;;;;5089577;28;20108;-69
2022/03/25 08:01:53;;;;;;;62.10;36.10;;;12.80;99.90;;;;;;5094608;28;20357;-68
2022/03/25 08:04:20;;;;;;;56.65;33.00;;;13.70;99.90;;;;;;5097511;28;20024;-69
2022/03/25 08:06:46;;;;;;;59.40;33.17;;;14.00;99.90;;;;;;5092081;28;20440;-67
2022/03/25 08:09:12;;;;;;;54.90;33.70;;;14.30;97.50;;;;;;5098778;28;20473;-68
2022/03/25 08:11:39;;;;;;;57.22;33.60;;;14.80;99.10;;;;;;5092761;28;20028;-68
2022/03/25 08:14:06;;;;;;;57.75;32.45;;;15.60;99.70;;;;;;5093901;28;20032;-68
2022/03/25 08:16:32;;;;;;;56.65;33.67;;;15.60;92.00;;;;;;5093242;28;20071;-66
2022/03/25 08:18:58;;;;;;;52.10;31.55;;;16.10;93.50;;;;;;5091303;28;20489;-67
2022/03/25 08:21:24;;;;;;;55.55;31.77;;;16.40;74.40;;;;;;5097856;28;20067;-70
2022/03/25 08:29:18;;;;;;;51.42;29.67;;;17.90;61.30;;;;;;5082252;28;20160;-67
2022/03/25 08:31:46;;;;;;;48.83;29.20;;;17.70;57.80;;;;;;5067825;28;20131;-68
2022/03/25 08:34:15;;;;;;;46.33;28.65;;;18.40;59.60;;;;;;5082195;28;20068;-68
2022/03/25 08:36:42;;;;;;;41.13;26.27;;;18.60;55.20;;;;;;5086797;28;20105;-68
2022/03/25 08:39:09;;;;;;;45.42;28.10;;;19.30;55.90;;;;;;5098556;28;20025;-69
2022/03/25 08:41:34;;;;;;;45.58;27.20;;;18.90;50.50;;;;;;5099777;28;20052;-70
2022/03/25 08:44:00;;;;;;;49.40;29.48;;;19.30;49.60;;;;;;5100226;28;20027;-69
2022/03/25 08:46:25;;;;;;;43.53;27.10;;;19.00;49.00;;;;;;5097346;28;20039;-69
2022/03/25 08:48:53;;;;;;;47.58;28.02;;;20.30;50.60;;;;;;5097424;28;20047;-69
2022/03/25 08:51:19;;;;;;;47.42;28.65;;;20.20;48.40;;;;;;5101199;28;20028;-69
2022/03/25 08:53:45;;;;;;;45.08;27.83;;;21.10;46.90;;;;;;5098823;28;20030;-69
2022/03/25 08:56:12;;;;;;;43.85;27.77;;;20.70;45.50;;;;;;5098818;28;20144;-69
2022/03/25 08:58:39;;;;;;;49.20;28.20;;;21.10;45.30;;;;;;5097582;28;20093;-69
2022/03/25 09:01:05;;;;;;;44.60;27.60;;;21.00;45.30;;;;;;5100236;28;20013;-69
2022/03/25 09:03:30;;;;;;;45.03;27.45;;;21.90;45.80;;;;;;5100312;28;20042;-68
2022/03/25 09:05:56;;;;;;;44.75;26.58;;;21.50;43.30;;;;;;5097655;28;20021;-69
2022/03/25 09:08:22;;;;;;;46.35;28.33;;;22.20;42.40;;;;;;5099105;28;20043;-69
2022/03/25 09:10:48;;;;;;;45.88;27.67;;;22.00;42.30;;;;;;5094591;28;20028;-69
2022/03/25 09:13:14;;;;;;;42.78;26.92;;;22.40;43.10;;;;;;5085999;28;20484;-69
2022/03/25 09:15:39;;;;;;;42.97;26.92;;;22.20;42.30;;;;;;5097670;28;20051;-69
2022/03/25 09:18:05;;;;;;;44.00;26.27;;;22.80;41.40;;;;;;5080496;28;20355;-71
2022/03/25 09:20:31;;;;;;;41.80;25.23;;;22.80;40.20;;;;;;5094464;28;20029;-69
2022/03/25 09:22:57;;;;;;;40.75;25.20;;;22.60;40.70;;;;;;5079185;28;20111;-69
2022/03/25 09:25:23;;;;;;;43.08;25.52;;;22.20;41.60;;;;;;5080459;28;20028;-69
2022/03/25 09:27:49;;;;;;;42.60;26.15;;;21.20;41.70;;;;;;5080091;28;20032;-69
2022/03/25 09:30:15;;;;;;;40.88;26.33;;;20.00;42.80;;;;;;5081438;28;20036;-69
2022/03/25 09:32:41;;;;;;;42.33;25.33;;;19.50;44.50;;;;;;5078986;28;20020;-70
2022/03/25 09:35:11;;;;;;;40.05;24.90;;;18.90;45.20;;;;;;5079922;28;20029;-69
2022/03/25 09:37:42;;;;;;;43.58;26.23;;;18.00;46.20;;;;;;5085750;28;20055;-69
2022/03/25 09:40:16;;;;;;;39.67;25.45;;;18.00;48.30;;;;;;5093550;28;20021;-69
2022/03/25 09:42:43;;;;;;;41.00;24.85;;;17.70;48.90;;;;;;5080553;28;20032;-69
2022/03/25 09:45:10;;;;;;;43.35;25.95;;;17.10;48.60;;;;;;5078777;28;20330;-69
2022/03/25 09:47:37;;;;;;;42.75;24.17;;;17.70;50.10;;;;;;5086490;28;20020;-69
2022/03/25 09:50:06;;;;;;;42.72;25.45;;;17.70;51.40;;;;;;5097073;28;20100;-69
2022/03/25 09:52:33;;;;;;;41.70;25.42;;;17.90;49.90;;;;;;5080683;28;20025;-69
2022/03/25 09:54:59;;;;;;;40.00;25.05;;;18.70;51.30;;;;;;5079349;28;20025;-69
2022/03/25 09:57:28;;;;;;;42.92;25.90;;;19.40;47.60;;;;;;5079066;28;20092;-69
2022/03/25 09:59:54;;;;;;;46.47;25.60;;;19.70;45.00;;;;;;5080173;28;20490;-69
2022/03/25 10:02:20;;;;;;;39.30;25.92;;;21.10;46.20;;;;;;5079721;28;20024;-69
2022/03/25 10:04:47;;;;;;;40.17;24.35;;;21.90;42.30;;;;;;5080897;28;20020;-69
2022/03/25 10:07:21;;;;;;;38.10;24.95;;;22.40;42.60;;;;;;5078911;28;20024;-70
2022/03/25 10:10:08;;;;;;;41.58;26.27;;;23.00;40.30;;;;;;5079470;28;20052;-69
2022/03/25 10:12:34;;;;;;;37.72;22.92;;;23.20;37.70;;;;;;5083489;28;20059;-69
2022/03/25 10:15:21;;;;;;;37.50;23.40;;;23.80;37.80;;;;;;5092110;28;20024;-69
2022/03/25 10:18:01;;;;;;;47.17;23.48;;;23.80;35.50;;;;;;5083222;28;20048;-69
2022/03/25 10:20:32;;;;;;;37.47;23.05;;;24.20;37.70;;;;;;5086606;28;20116;-69
2022/03/25 10:23:06;;;;;;;37.70;24.02;;;24.20;35.20;;;;;;5082291;28;20131;-69
2022/03/25 10:25:48;;;;;;;37.28;23.00;;;24.30;36.70;;;;;;5083677;28;20033;-69
2022/03/25 10:28:31;;;;;;;37.83;22.42;;;24.80;36.60;;;;;;5082018;28;20028;-69
2022/03/25 10:30:59;;;;;;;37.85;23.55;;;24.70;36.00;;;;;;5083681;28;20053;-69
2022/03/25 10:33:31;;;;;;;38.30;23.58;;;25.80;36.40;;;;;;5083698;28;20535;-69
2022/03/25 10:35:59;;;;;;;37.58;24.33;;;25.70;34.70;;;;;;5101432;28;20038;-69
2022/03/25 10:38:26;;;;;;;38.55;22.85;;;25.60;34.00;;;;;;5103628;28;20039;-68
2022/03/25 10:40:54;;;;;;;39.67;24.13;;;25.10;32.80;;;;;;5091092;28;20032;-69
2022/03/25 10:43:21;;;;;;;41.45;23.25;;;25.50;33.20;;;;;;5081573;28;20008;-69
2022/03/25 10:45:48;;;;;;;39.70;21.77;;;25.30;32.60;;;;;;5083815;28;20115;-69
2022/03/25 10:48:17;;;;;;;39.42;22.77;;;24.80;32.80;;;;;;5082331;28;20025;-68
2022/03/25 10:50:58;;;;;;;36.83;21.65;;;25.80;33.50;;;;;;5085467;28;20558;-68
2022/03/25 10:53:24;;;;;;;38.03;22.15;;;25.80;33.80;;;;;;5088185;28;20084;-69
2022/03/25 10:55:59;;;;;;;38.47;23.25;;;26.80;34.10;;;;;;5086269;28;20029;-74
2022/03/25 10:58:25;;;;;;;37.72;23.23;;;26.80;31.30;;;;;;5096205;28;20030;-75
2022/03/25 11:00:51;;;;;;;40.78;23.05;;;26.50;30.70;;;;;;5086882;28;20173;-75
2022/03/25 11:03:17;;;;;;;40.40;23.77;;;27.70;31.60;;;;;;5076480;28;20039;-71
2022/03/25 11:05:44;;;;;;;37.67;21.80;;;26.90;30.30;;;;;;5082297;28;20024;-72
2022/03/25 11:08:10;;;;;;;32.78;19.77;;;27.80;31.50;;;;;;5087873;28;20040;-71
2022/03/25 11:10:38;;;;;;;36.05;21.67;;;27.30;29.50;;;;;;5084072;28;20047;-71
2022/03/25 11:13:05;;;;;;;37.55;21.63;;;27.30;30.10;;;;;;5086552;28;20039;-71
2022/03/25 11:15:32;;;;;;;38.63;21.92;;;27.10;30.50;;;;;;5093213;28;20024;-72
2022/03/25 11:17:58;;;;;;;40.00;22.55;;;26.10;28.70;;;;;;5089910;28;20559;-72
2022/03/25 11:20:28;;;;;;;35.88;22.33;;;26.90;30.00;;;;;;5084855;28;20105;-73
2022/03/25 11:23:16;;;;;;;35.38;22.67;;;27.10;29.70;;;;;;5071708;28;20032;-72
2022/03/25 11:25:49;;;;;;;35.97;21.25;;;27.60;30.40;;;;;;5084537;28;20032;-72
2022/03/25 11:28:25;;;;;;;36.47;21.77;;;27.50;31.70;;;;;;5085653;28;20030;-74
2022/03/25 11:31:04;;;;;;;37.20;21.83;;;27.70;31.50;;;;;;5080256;28;20127;-74
2022/03/25 11:33:29;;;;;;;35.58;22.73;;;27.30;32.20;;;;;;5091839;28;20123;-74
2022/03/25 11:36:19;;;;;;;36.17;20.55;;;28.00;30.20;;;;;;5082788;28;20059;-74
2022/03/25 11:38:45;;;;;;;35.72;22.17;;;27.70;29.60;;;;;;5106468;28;20029;-75
2022/03/25 11:41:25;;;;;;;32.35;21.80;;;26.70;29.30;;;;;;5059141;28;20166;-75
2022/03/25 11:44:16;;;;;;;36.35;22.08;;;28.50;30.80;;;;;;5091135;28;20039;-69
2022/03/25 11:47:00;;;;;;;39.35;21.50;;;28.40;30.40;;;;;;5084880;28;20028;-72
2022/03/25 11:49:27;;;;;;;37.03;21.08;;;28.90;29.40;;;;;;5088244;28;20095;-73
2022/03/25 11:51:53;;;;;;;41.17;22.48;;;28.20;29.90;;;;;;5092293;28;20050;-74
2022/03/25 11:54:40;;;;;;;38.65;21.48;;;27.90;29.50;;;;;;5091892;28;20032;-73
2022/03/25 11:57:20;;;;;;;37.10;21.88;;;27.60;29.60;;;;;;5080508;28;20033;-73
2022/03/25 11:59:54;;;;;;;33.42;20.58;;;27.30;30.80;;;;;;5088086;28;20039;-72
2022/03/25 12:02:30;;;;;;;37.67;20.25;;;28.80;30.10;;;;;;5085390;28;20083;-78
2022/03/25 12:04:58;;;;;;;35.35;21.80;;;27.40;28.90;;;;;;5082067;28;20025;-70
2022/03/25 12:07:24;;;;;;;36.28;20.10;;;27.10;29.00;;;;;;5090087;28;20024;-69
2022/03/25 12:09:50;;;;;;;38.50;22.80;;;27.80;29.70;;;;;;5088568;28;20134;-70
2022/03/25 12:12:15;;;;;;;37.58;22.33;;;28.70;29.80;;;;;;5087566;28;20100;-68
2022/03/25 12:15:09;;;;;;;34.00;21.13;;;27.90;29.90;;;;;;5080210;28;20025;-69
2022/03/25 12:17:35;;;;;;;37.05;21.35;;;29.00;29.40;;;;;;5087948;28;20459;-70
2022/03/25 12:20:01;;;;;;;38.22;22.25;;;28.20;29.90;;;;;;5079997;28;20025;-69
2022/03/25 12:22:33;;;;;;;34.85;21.27;;;28.70;29.20;;;;;;5081612;28;20402;-68
2022/03/25 12:25:14;;;;;;;34.38;21.15;;;28.50;29.00;;;;;;5079918;28;20442;-71
2022/03/25 12:27:41;;;;;;;36.97;21.75;;;29.20;29.50;;;;;;5099449;28;20028;-69
2022/03/25 12:30:08;;;;;;;35.17;20.52;;;28.00;30.00;;;;;;5101244;28;20413;-68
2022/03/25 12:32:36;;;;;;;31.58;19.13;;;28.10;29.80;;;;;;5097014;28;20044;-70
2022/03/25 12:35:16;;;;;;;32.65;19.15;;;27.70;29.80;;;;;;5100179;28;20024;-69
2022/03/25 12:38:18;;;;;;;32.38;19.67;;;27.90;30.70;;;;;;5085242;28;20029;-69